Time;durP1;ratioP1;P1;durP2;ratioP2;P2;SDS_P1;SDS_P2;PMS_P1;PMS_P2;Temp;Humidity;BMP_temperature;BMP_pressure;BME280_temperature;BME280_humidity;BME280_pressure;Samples;Min_cycle;Max_cycle;Signal;HPM_P1;HPM_P2
2022/04/06 00:00:48;;;;;;;17.88;14.30;;;10.50;99.90;;;;;;5096026;28;20034;-51
2022/04/06 00:03:32;;;;;;;18.13;15.40;;;10.50;99.90;;;;;;5089555;28;20047;-51
2022/04/06 00:06:16;;;;;;;16.47;14.53;;;10.50;99.90;;;;;;5092213;28;20450;-53
2022/04/06 00:09:00;;;;;;;16.10;13.77;;;10.50;99.90;;;;;;5087412;28;20101;-49
2022/04/06 00:11:44;;;;;;;17.67;14.43;;;10.50;99.90;;;;;;5085726;28;20050;-51
2022/04/06 00:14:28;;;;;;;15.10;13.07;;;10.50;99.90;;;;;;5087273;28;20085;-49
2022/04/06 00:17:13;;;;;;;16.25;13.90;;;10.50;99.90;;;;;;5094030;28;20062;-52
2022/04/06 00:19:58;;;;;;;17.25;13.80;;;10.40;99.90;;;;;;5086132;28;20048;-53
2022/04/06 00:22:42;;;;;;;15.88;13.32;;;10.40;99.90;;;;;;5078556;28;20028;-53
2022/04/06 00:25:26;;;;;;;16.65;14.50;;;10.40;99.90;;;;;;5084895;28;20502;-47
2022/04/06 00:28:10;;;;;;;14.57;12.67;;;10.30;99.90;;;;;;5081463;28;20086;-51
2022/04/06 00:30:55;;;;;;;14.48;12.68;;;10.30;99.90;;;;;;5083754;28;20709;-53
2022/04/06 00:33:40;;;;;;;12.98;11.30;;;10.30;99.90;;;;;;5084801;28;20039;-51
2022/04/06 00:36:24;;;;;;;12.95;11.57;;;10.30;99.90;;;;;;5075533;28;20594;-50
2022/04/06 00:39:08;;;;;;;12.88;11.38;;;10.30;99.90;;;;;;5083036;28;20534;-49
2022/04/06 00:41:52;;;;;;;12.30;9.65;;;10.20;99.90;;;;;;5096598;28;20136;-51
2022/04/06 00:44:36;;;;;;;12.02;9.85;;;10.30;99.90;;;;;;5089595;28;20035;-53
2022/04/06 00:47:20;;;;;;;12.32;10.40;;;10.30;99.90;;;;;;5084777;28;20381;-46
2022/04/06 00:50:05;;;;;;;11.13;9.27;;;10.30;99.90;;;;;;5073038;28;20063;-46
2022/04/06 00:52:55;;;;;;;10.55;8.77;;;10.30;99.90;;;;;;5085394;28;20083;-51
2022/04/06 00:55:39;;;;;;;9.18;8.27;;;10.30;99.90;;;;;;5101488;28;20074;-51
2022/04/06 00:58:24;;;;;;;7.97;7.18;;;10.30;99.90;;;;;;5090874;28;20031;-49
2022/04/06 01:01:08;;;;;;;;;;;10.40;99.90;;;;;;5086096;28;20074;-54
2022/04/06 01:03:53;;;;;;;7.45;6.75;;;10.40;99.90;;;;;;5072470;28;19920;-52
2022/04/06 01:06:37;;;;;;;8.48;7.55;;;10.40;99.90;;;;;;5074903;28;21730;-49
2022/04/06 01:09:21;;;;;;;8.13;7.10;;;10.40;99.90;;;;;;5093544;28;20092;-54
2022/04/06 01:12:07;;;;;;;7.82;7.03;;;10.40;99.90;;;;;;5079043;28;20446;-54
2022/04/06 01:14:51;;;;;;;9.60;6.70;;;10.40;99.90;;;;;;5072103;28;20090;-49
2022/04/06 01:17:35;;;;;;;7.80;7.00;;;10.40;99.90;;;;;;5088592;28;20046;-51
2022/04/06 01:20:20;;;;;;;9.38;7.55;;;10.40;99.90;;;;;;5092461;28;20546;-48
2022/04/06 01:23:04;;;;;;;9.15;7.03;;;10.30;99.90;;;;;;5072434;28;20040;-50
2022/04/06 01:25:49;;;;;;;11.27;8.18;;;10.40;99.90;;;;;;5085390;28;20165;-54
2022/04/06 01:28:33;;;;;;;10.80;8.23;;;10.40;99.90;;;;;;5092497;28;20030;-53
2022/04/06 01:31:17;;;;;;;7.18;6.47;;;10.40;99.90;;;;;;5075322;28;20086;-51
2022/04/06 01:34:02;;;;;;;7.97;6.75;;;10.40;99.90;;;;;;5071775;28;20079;-51
2022/04/06 01:36:47;;;;;;;;;;;10.40;99.90;;;;;;5073637;28;20040;-48
2022/04/06 01:39:32;;;;;;;12.57;7.50;;;10.40;99.90;;;;;;5073386;28;19954;-53
2022/04/06 01:42:19;;;;;;;10.02;7.45;;;10.40;99.90;;;;;;5102584;28;20153;-51
2022/04/06 01:45:04;;;;;;;8.15;7.18;;;10.40;99.90;;;;;;5079596;28;20040;-50
2022/04/06 01:47:48;;;;;;;9.80;7.68;;;10.40;99.90;;;;;;5071713;28;20044;-54
2022/04/06 01:53:36;;;;;;;10.35;7.63;;;10.40;99.90;;;;;;5088972;28;20085;-50
2022/04/06 01:56:20;;;;;;;9.77;7.28;;;10.40;99.90;;;;;;5072922;28;20530;-50
2022/04/06 01:59:04;;;;;;;7.90;6.93;;;10.40;99.90;;;;;;5078020;28;20059;-49
2022/04/06 02:01:53;;;;;;;8.80;7.60;;;10.40;99.90;;;;;;5091315;28;20123;-51
2022/04/06 02:04:38;;;;;;;8.65;7.40;;;10.40;99.90;;;;;;5081147;28;20090;-50
2022/04/06 02:07:23;;;;;;;8.57;6.95;;;10.40;99.90;;;;;;5071231;28;20404;-52
2022/04/06 02:10:09;;;;;;;9.82;7.65;;;10.40;99.90;;;;;;5084904;28;20127;-52
2022/04/06 02:12:57;;;;;;;10.35;8.45;;;10.40;99.90;;;;;;5088888;28;20605;-53
2022/04/06 02:15:41;;;;;;;10.15;7.75;;;10.30;99.90;;;;;;5071972;28;20162;-51
2022/04/06 02:18:26;;;;;;;12.85;8.30;;;10.40;99.90;;;;;;5078402;28;20518;-50
2022/04/06 02:21:10;;;;;;;9.73;7.65;;;10.40;99.90;;;;;;5091533;28;20059;-52
2022/04/06 02:23:54;;;;;;;9.55;7.78;;;10.40;99.90;;;;;;5081440;28;20047;-51
2022/04/06 02:26:38;;;;;;;9.67;8.03;;;10.50;99.90;;;;;;5071841;28;20107;-49
2022/04/06 02:29:22;;;;;;;11.68;8.43;;;10.40;99.90;;;;;;5084496;28;20305;-51
2022/04/06 02:32:07;;;;;;;13.13;8.83;;;10.40;99.90;;;;;;5090337;28;20420;-53
2022/04/06 02:34:52;;;;;;;;;;;10.30;99.90;;;;;;5074099;28;20375;-52
2022/04/06 02:37:36;;;;;;;11.27;8.82;;;10.40;99.90;;;;;;5077280;28;20553;-47
2022/04/06 02:40:20;;;;;;;11.73;9.53;;;10.40;99.90;;;;;;5091786;28;20514;-53
2022/04/06 02:43:04;;;;;;;14.30;9.73;;;10.30;99.90;;;;;;5099551;28;20108;-54
2022/04/06 02:45:48;;;;;;;11.57;9.63;;;10.30;99.90;;;;;;5091959;28;20043;-50
2022/04/06 02:48:32;;;;;;;10.85;8.80;;;10.20;99.90;;;;;;5085972;28;20292;-50
2022/04/06 02:51:16;;;;;;;13.00;10.40;;;10.30;99.90;;;;;;5088531;28;20031;-52
2022/04/06 02:54:00;;;;;;;12.45;9.63;;;10.30;99.90;;;;;;5089395;28;20085;-52
2022/04/06 02:56:45;;;;;;;10.80;9.57;;;10.20;99.90;;;;;;5109439;28;20074;-49
2022/04/06 02:59:30;;;;;;;14.07;10.55;;;10.20;99.90;;;;;;5088041;28;20510;-49
2022/04/06 03:02:14;;;;;;;15.77;10.50;;;10.20;99.90;;;;;;5085186;28;20046;-48
2022/04/06 03:04:58;;;;;;;14.90;11.25;;;10.20;99.90;;;;;;5091315;28;20109;-51
2022/04/06 03:07:42;;;;;;;15.85;11.82;;;10.30;99.90;;;;;;5081218;28;20106;-51
2022/04/06 03:10:26;;;;;;;14.63;10.53;;;10.10;99.90;;;;;;5084093;28;20043;-55
2022/04/06 03:13:10;;;;;;;14.97;11.00;;;10.20;99.90;;;;;;5085183;28;20089;-49
2022/04/06 03:15:56;;;;;;;16.77;10.98;;;10.10;99.90;;;;;;5089975;28;20269;-55
2022/04/06 03:18:40;;;;;;;15.90;11.27;;;10.10;99.90;;;;;;5089133;28;20078;-50
2022/04/06 03:21:24;;;;;;;14.40;11.77;;;10.00;99.90;;;;;;5089351;28;20038;-52
2022/04/06 03:24:08;;;;;;;15.13;11.60;;;10.00;99.90;;;;;;5073903;28;20075;-54
2022/04/06 03:26:52;;;;;;;16.80;10.73;;;10.00;99.90;;;;;;5081177;28;20075;-52
2022/04/06 03:29:36;;;;;;;15.23;10.30;;;9.90;99.90;;;;;;5093087;28;20403;-55
2022/04/06 03:32:20;;;;;;;18.85;10.80;;;9.90;99.90;;;;;;5083144;28;20514;-49
2022/04/06 03:35:06;;;;;;;16.77;10.32;;;9.90;99.90;;;;;;5073614;28;20094;-53
2022/04/06 03:37:51;;;;;;;15.48;9.35;;;9.90;99.90;;;;;;5087677;28;20057;-52
2022/04/06 03:40:35;;;;;;;18.15;9.88;;;9.90;99.90;;;;;;5094279;28;20058;-53
2022/04/06 03:43:19;;;;;;;13.13;9.45;;;9.90;99.90;;;;;;5094814;28;20096;-51
2022/04/06 03:46:03;;;;;;;12.63;8.60;;;10.00;99.90;;;;;;5094460;28;20039;-52
2022/04/06 03:48:47;;;;;;;18.02;8.98;;;9.90;99.90;;;;;;5072766;28;20428;-52
2022/04/06 03:51:31;;;;;;;13.37;8.37;;;9.80;99.90;;;;;;5074962;28;20522;-49
2022/04/06 03:54:15;;;;;;;13.68;8.25;;;9.80;99.90;;;;;;5093407;28;20043;-53
2022/04/06 03:57:00;;;;;;;16.83;8.87;;;9.70;99.90;;;;;;5084975;28;20075;-53
2022/04/06 03:59:44;;;;;;;;;;;9.70;99.90;;;;;;5094732;28;20340;-52
2022/04/06 04:02:28;;;;;;;17.58;8.30;;;9.70;99.90;;;;;;5078058;28;19973;-51
2022/04/06 04:05:12;;;;;;;18.80;8.95;;;9.60;99.90;;;;;;5079359;28;20400;-51
2022/04/06 04:07:57;;;;;;;13.68;7.43;;;9.70;99.90;;;;;;5087253;28;20039;-54
2022/04/06 04:10:41;;;;;;;14.60;7.67;;;9.80;99.90;;;;;;5087345;28;20096;-50
2022/04/06 04:13:25;;;;;;;22.95;8.20;;;9.80;99.90;;;;;;5088648;28;20035;-54
2022/04/06 04:16:09;;;;;;;18.23;7.50;;;9.60;99.90;;;;;;5093269;28;20043;-53
2022/04/06 04:18:53;;;;;;;11.67;7.73;;;9.60;99.90;;;;;;5093195;28;20031;-50
2022/04/06 04:21:37;;;;;;;18.05;7.85;;;9.60;99.90;;;;;;5087185;28;20453;-52
2022/04/06 04:24:21;;;;;;;13.50;7.80;;;9.60;99.90;;;;;;5072205;28;20092;-53
2022/04/06 04:27:05;;;;;;;13.77;7.57;;;9.60;99.90;;;;;;5074670;28;20557;-54
2022/04/06 04:29:49;;;;;;;16.73;7.67;;;9.80;99.90;;;;;;5072797;28;20062;-52
2022/04/06 04:32:34;;;;;;;21.42;8.25;;;9.70;99.90;;;;;;5083924;28;20043;-55
2022/04/06 04:35:18;;;;;;;12.20;7.35;;;9.60;99.90;;;;;;5072706;28;20043;-50
2022/04/06 04:38:02;;;;;;;15.30;8.43;;;9.50;99.90;;;;;;5088161;28;20070;-56
2022/04/06 04:40:46;;;;;;;14.07;8.73;;;9.40;99.90;;;;;;5089526;28;20277;-51
2022/04/06 04:43:30;;;;;;;14.30;7.95;;;9.40;99.90;;;;;;5088105;28;20085;-52
2022/04/06 04:46:15;;;;;;;11.57;7.00;;;9.50;99.90;;;;;;5092218;28;20100;-47
2022/04/06 04:48:59;;;;;;;17.25;7.82;;;9.60;99.90;;;;;;5072503;28;20055;-52
2022/04/06 04:51:43;;;;;;;15.73;7.80;;;9.70;99.90;;;;;;5082519;28;20145;-50
2022/04/06 04:54:27;;;;;;;13.20;8.68;;;9.70;99.90;;;;;;5091928;28;20109;-55
2022/04/06 04:57:11;;;;;;;16.13;9.45;;;9.70;99.90;;;;;;5085365;28;20510;-51
2022/04/06 04:59:55;;;;;;;15.33;8.53;;;9.80;99.90;;;;;;5087258;28;20098;-50
2022/04/06 05:02:39;;;;;;;14.82;8.48;;;9.80;99.90;;;;;;5071853;28;20447;-53
2022/04/06 05:05:23;;;;;;;19.10;10.43;;;10.00;99.90;;;;;;5070979;28;20074;-48
2022/04/06 05:08:08;;;;;;;17.63;9.65;;;10.00;99.90;;;;;;5072326;28;20040;-54
2022/04/06 05:10:52;;;;;;;18.10;10.23;;;10.10;99.90;;;;;;5083225;28;20039;-52
2022/04/06 05:13:38;;;;;;;14.82;10.23;;;10.00;99.90;;;;;;5074079;28;20039;-52
2022/04/06 05:16:22;;;;;;;17.80;10.30;;;10.00;99.90;;;;;;5082747;28;20173;-53
2022/04/06 05:19:06;;;;;;;15.90;10.25;;;10.00;99.90;;;;;;5091854;28;20055;-53
2022/04/06 05:21:50;;;;;;;20.73;10.97;;;10.00;99.90;;;;;;5091201;28;20051;-55
2022/04/06 05:24:34;;;;;;;20.88;11.32;;;10.00;99.90;;;;;;5088821;28;20282;-55
2022/04/06 05:27:18;;;;;;;16.33;11.10;;;10.00;99.90;;;;;;5091954;28;20453;-51
2022/04/06 05:30:04;;;;;;;17.35;12.23;;;10.00;99.90;;;;;;5072552;28;20225;-57
2022/04/06 05:32:50;;;;;;;14.23;11.05;;;10.00;99.90;;;;;;5071199;28;20121;-50
2022/04/06 05:35:34;;;;;;;17.52;12.07;;;10.00;99.90;;;;;;5075338;28;20448;-52
2022/04/06 05:38:18;;;;;;;17.97;11.83;;;10.00;99.90;;;;;;5077605;28;20086;-49
2022/04/06 05:41:02;;;;;;;18.23;12.73;;;10.10;99.90;;;;;;5086601;28;20089;-51
2022/04/06 05:43:47;;;;;;;17.58;11.52;;;10.10;99.90;;;;;;5111474;28;20287;-53
2022/04/06 05:46:31;;;;;;;17.83;12.48;;;10.10;99.90;;;;;;5090176;28;20518;-50
2022/04/06 05:49:15;;;;;;;19.88;12.32;;;10.10;99.90;;;;;;5075125;28;20116;-49
2022/04/06 05:51:59;;;;;;;18.73;11.93;;;10.20;99.90;;;;;;5070918;28;20035;-53
2022/04/06 05:54:43;;;;;;;20.55;12.73;;;10.30;99.90;;;;;;5088460;28;20040;-52
2022/04/06 05:57:28;;;;;;;18.48;12.60;;;10.20;99.90;;;;;;5090763;28;20031;-55
2022/04/06 06:00:13;;;;;;;15.77;12.07;;;10.30;99.90;;;;;;5079233;28;20047;-53
2022/04/06 06:02:57;;;;;;;15.82;10.85;;;10.30;99.90;;;;;;5071356;28;20082;-53
2022/04/06 06:05:41;;;;;;;15.75;11.38;;;10.30;99.90;;;;;;5076420;28;20134;-51
2022/04/06 06:08:25;;;;;;;15.63;10.32;;;10.30;99.90;;;;;;5090870;28;20058;-52
2022/04/06 06:11:09;;;;;;;20.10;12.23;;;10.30;99.90;;;;;;5075272;28;20061;-54
2022/04/06 06:13:53;;;;;;;19.30;11.45;;;10.30;99.90;;;;;;5070800;28;20115;-53
2022/04/06 06:16:37;;;;;;;17.60;10.13;;;10.40;99.90;;;;;;5071274;28;20545;-52
2022/04/06 06:19:21;;;;;;;22.97;10.47;;;10.40;99.90;;;;;;5081496;28;20089;-54
2022/04/06 06:22:06;;;;;;;19.60;10.73;;;10.40;99.90;;;;;;5084958;28;20445;-57
2022/04/06 06:24:50;;;;;;;20.20;11.03;;;10.30;99.90;;;;;;5086221;28;20039;-51
2022/04/06 06:27:41;;;;;;;19.85;10.18;;;10.30;99.90;;;;;;5087354;28;20150;-50
2022/04/06 06:30:27;;;;;;;15.05;9.23;;;10.40;99.90;;;;;;5087684;28;20050;-51
2022/04/06 06:33:12;;;;;;;14.10;9.13;;;10.50;99.90;;;;;;5082862;28;20043;-51
2022/04/06 06:35:56;;;;;;;16.42;9.20;;;10.50;99.90;;;;;;5089293;28;20388;-54
2022/04/06 06:38:41;;;;;;;13.50;9.13;;;10.60;99.90;;;;;;5090741;28;20111;-54
2022/04/06 06:41:25;;;;;;;12.93;8.37;;;10.60;99.90;;;;;;5084864;28;20502;-55
2022/04/06 06:44:09;;;;;;;16.57;9.13;;;10.60;99.90;;;;;;5111066;28;20030;-52
2022/04/06 06:46:53;;;;;;;15.52;9.48;;;10.70;99.90;;;;;;5078403;28;20046;-56
2022/04/06 06:49:40;;;;;;;15.83;8.93;;;10.60;99.90;;;;;;5090110;28;20078;-52
2022/04/06 06:52:25;;;;;;;15.23;8.98;;;10.60;99.90;;;;;;5089284;28;20043;-53
2022/04/06 06:55:09;;;;;;;20.02;9.80;;;10.70;99.90;;;;;;5096353;28;20069;-55
2022/04/06 06:57:53;;;;;;;17.38;9.52;;;10.70;99.90;;;;;;5094823;28;20576;-50
2022/04/06 07:00:37;;;;;;;18.13;10.05;;;10.70;99.90;;;;;;5092847;28;20058;-51
2022/04/06 07:03:21;;;;;;;14.95;11.15;;;10.80;99.90;;;;;;5091270;28;20142;-52
2022/04/06 07:06:05;;;;;;;18.88;10.07;;;10.80;99.90;;;;;;5086832;28;20096;-52
2022/04/06 07:08:49;;;;;;;18.27;10.07;;;10.90;99.90;;;;;;5093922;28;20444;-54
2022/04/06 07:11:33;;;;;;;17.40;10.10;;;10.90;99.90;;;;;;5103784;28;20537;-53
2022/04/06 07:14:17;;;;;;;17.70;10.47;;;10.90;99.90;;;;;;5086992;28;20043;-54
2022/04/06 07:17:01;;;;;;;15.23;10.45;;;10.90;99.90;;;;;;5090077;28;20047;-49
2022/04/06 07:19:45;;;;;;;21.30;11.53;;;11.00;99.90;;;;;;5091859;28;20101;-54
2022/04/06 07:22:29;;;;;;;14.93;10.85;;;11.00;99.90;;;;;;5075595;28;20666;-55
2022/04/06 07:25:14;;;;;;;15.77;11.30;;;10.90;99.90;;;;;;5081361;28;20040;-51
2022/04/06 07:27:58;;;;;;;17.88;11.43;;;11.10;99.90;;;;;;5081619;28;20042;-52
2022/04/06 07:30:42;;;;;;;11.80;9.73;;;11.00;99.90;;;;;;5093645;28;20043;-48
2022/04/06 07:33:26;;;;;;;16.48;11.00;;;11.10;99.90;;;;;;5094035;28;20482;-55
2022/04/06 07:36:10;;;;;;;13.48;10.18;;;11.20;99.90;;;;;;5098531;28;20035;-50
2022/04/06 07:38:54;;;;;;;18.00;10.73;;;11.20;99.90;;;;;;5092272;28;20085;-48
2022/04/06 07:41:38;;;;;;;15.52;10.48;;;11.20;99.90;;;;;;5086578;28;20077;-54
2022/04/06 07:44:25;;;;;;;17.17;10.80;;;11.20;99.90;;;;;;5083022;28;20040;-51
2022/04/06 07:47:09;;;;;;;16.88;10.18;;;11.10;99.90;;;;;;5092785;28;20039;-53
2022/04/06 07:49:53;;;;;;;15.75;10.85;;;11.20;99.90;;;;;;5093926;28;20058;-55
2022/04/06 07:52:37;;;;;;;16.83;11.17;;;11.20;99.90;;;;;;5094127;28;20092;-52
2022/04/06 07:55:21;;;;;;;15.73;9.77;;;11.20;99.90;;;;;;5100920;28;20107;-47
2022/04/06 07:58:05;;;;;;;16.90;11.00;;;11.20;99.90;;;;;;5113775;28;20547;-52
2022/04/06 08:00:49;;;;;;;17.85;10.30;;;11.20;99.90;;;;;;5113641;28;20130;-52
2022/04/06 08:03:33;;;;;;;16.98;10.32;;;11.20;99.90;;;;;;5113917;28;20059;-53
2022/04/06 08:06:18;;;;;;;15.77;10.52;;;11.20;99.90;;;;;;5093610;28;20038;-54
2022/04/06 08:09:04;;;;;;;14.97;10.33;;;11.20;99.90;;;;;;5088443;28;20062;-52
2022/04/06 08:11:50;;;;;;;16.35;9.55;;;11.20;99.90;;;;;;5093492;28;20051;-50
2022/04/06 08:14:34;;;;;;;17.60;9.35;;;11.30;99.90;;;;;;5093591;28;20085;-50
2022/04/06 08:17:18;;;;;;;16.47;9.20;;;11.30;99.90;;;;;;5093420;28;20030;-49
2022/04/06 08:20:04;;;;;;;13.98;8.57;;;11.30;99.90;;;;;;5087063;28;20331;-52
2022/04/06 08:22:50;;;;;;;15.30;10.25;;;11.40;99.90;;;;;;5088879;28;20067;-51
2022/04/06 08:25:34;;;;;;;14.45;9.38;;;11.50;99.90;;;;;;5089127;28;20027;-53
2022/04/06 08:28:19;;;;;;;17.17;10.10;;;11.60;99.90;;;;;;5089522;28;20088;-54
2022/04/06 08:31:05;;;;;;;14.57;9.15;;;11.40;99.90;;;;;;5093617;28;20691;-52
2022/04/06 08:33:49;;;;;;;13.45;9.05;;;11.50;99.90;;;;;;5092487;28;20062;-52
2022/04/06 08:36:34;;;;;;;13.73;8.63;;;11.50;99.90;;;;;;5093124;28;20115;-52
2022/04/06 08:39:18;;;;;;;16.27;8.70;;;11.60;99.90;;;;;;5092729;28;20537;-50
2022/04/06 08:42:04;;;;;;;15.60;9.25;;;11.60;99.90;;;;;;5086356;28;20518;-50
2022/04/06 08:44:48;;;;;;;16.30;8.20;;;11.50;99.90;;;;;;5092925;28;20082;-53
2022/04/06 08:47:33;;;;;;;14.83;8.07;;;11.50;99.90;;;;;;5092360;28;20077;-55
2022/04/06 08:50:20;;;;;;;14.15;8.43;;;11.50;99.90;;;;;;5091154;28;20046;-49
2022/04/06 08:53:06;;;;;;;10.50;8.43;;;11.40;99.90;;;;;;5084043;28;20043;-54
2022/04/06 08:55:50;;;;;;;12.40;8.13;;;11.30;99.90;;;;;;5083900;28;20062;-53
2022/04/06 08:58:34;;;;;;;12.63;8.37;;;11.30;99.90;;;;;;5079072;28;20442;-55
2022/04/06 09:01:21;;;;;;;12.77;8.02;;;11.30;99.90;;;;;;5082175;28;20027;-57
2022/04/06 09:04:05;;;;;;;12.60;7.25;;;11.30;99.90;;;;;;5081415;28;20071;-55
2022/04/06 09:06:49;;;;;;;9.82;7.22;;;11.20;99.90;;;;;;5081911;28;20044;-52
2022/04/06 09:09:35;;;;;;;13.00;7.57;;;11.20;99.90;;;;;;5080854;28;20047;-52
2022/04/06 09:12:24;;;;;;;14.07;7.45;;;11.30;99.90;;;;;;5077347;28;20506;-49
2022/04/06 09:15:11;;;;;;;11.18;7.15;;;11.20;99.90;;;;;;5088046;28;20119;-51
2022/04/06 09:17:59;;;;;;;10.52;7.25;;;11.30;99.90;;;;;;5084201;28;20552;-49
2022/04/06 09:20:43;;;;;;;10.52;7.43;;;11.40;99.90;;;;;;5081960;28;20034;-51
2022/04/06 09:23:32;;;;;;;12.43;7.27;;;11.50;99.90;;;;;;5087277;28;20074;-49
2022/04/06 09:26:20;;;;;;;11.30;6.97;;;11.50;99.90;;;;;;5085662;28;20311;-54
2022/04/06 09:29:04;;;;;;;10.88;7.68;;;11.60;99.50;;;;;;5082822;28;20146;-51
2022/04/06 09:31:49;;;;;;;16.08;6.97;;;11.70;99.30;;;;;;5079670;28;20534;-51
2022/04/06 09:34:34;;;;;;;;;;;11.80;99.60;;;;;;5080967;28;20490;-53
2022/04/06 09:37:45;;;;;;;10.10;5.97;;;12.10;98.90;;;;;;5092560;28;19969;-49
2022/04/06 09:40:29;;;;;;;16.35;6.10;;;12.30;97.10;;;;;;5083590;28;20120;-51
2022/04/06 09:43:33;;;;;;;10.43;5.53;;;12.30;96.60;;;;;;5093822;28;20039;-50
2022/04/06 09:49:26;;;;;;;13.40;6.13;;;12.20;96.40;;;;;;5074751;28;20043;-54
2022/04/06 09:52:10;;;;;;;7.63;4.57;;;12.10;96.40;;;;;;5084432;28;20113;-50
2022/04/06 09:54:54;;;;;;;9.75;5.00;;;12.20;95.80;;;;;;5085373;28;20031;-49
2022/04/06 09:57:44;;;;;;;7.35;4.85;;;12.10;94.90;;;;;;5087616;28;20035;-51
2022/04/06 10:00:30;;;;;;;6.40;4.75;;;11.90;95.30;;;;;;5089648;28;20031;-49
2022/04/06 10:03:15;;;;;;;9.18;5.68;;;11.90;95.80;;;;;;5077099;28;20088;-53
2022/04/06 10:05:59;;;;;;;8.23;5.22;;;11.70;96.30;;;;;;5082582;28;20042;-51
2022/04/06 10:08:44;;;;;;;9.77;5.30;;;11.80;96.20;;;;;;5083912;28;20031;-52
2022/04/06 10:11:29;;;;;;;11.82;4.85;;;11.70;95.60;;;;;;5080480;28;20043;-53
2022/04/06 10:14:13;;;;;;;10.68;5.30;;;11.70;95.90;;;;;;5085727;28;20035;-52
2022/04/06 10:16:57;;;;;;;7.67;4.63;;;11.70;95.90;;;;;;5091897;28;20081;-54
2022/04/06 10:19:47;;;;;;;7.05;4.60;;;11.70;95.90;;;;;;5091369;28;20031;-51
2022/04/06 10:22:40;;;;;;;7.85;4.22;;;11.70;95.70;;;;;;5091244;28;20113;-51
2022/04/06 10:25:43;;;;;;;9.02;4.07;;;11.60;95.40;;;;;;5091107;28;20039;-51
2022/04/06 10:28:32;;;;;;;5.70;3.72;;;11.70;95.20;;;;;;5091873;28;20115;-51
2022/04/06 10:31:24;;;;;;;6.65;4.20;;;11.60;95.20;;;;;;5094878;28;20471;-51
2022/04/06 10:34:32;;;;;;;8.68;4.53;;;11.60;95.10;;;;;;5095098;28;20514;-51
2022/04/06 10:37:16;;;;;;;7.68;3.60;;;11.60;94.90;;;;;;5095044;28;20454;-51
2022/04/06 10:40:00;;;;;;;7.60;4.57;;;11.70;95.00;;;;;;5094843;28;20567;-52
2022/04/06 10:42:46;;;;;;;8.13;4.25;;;11.70;95.00;;;;;;5095073;28;20269;-53
2022/04/06 10:45:30;;;;;;;10.20;4.10;;;11.70;94.60;;;;;;5095769;28;20035;-51
2022/04/06 10:48:18;;;;;;;5.25;3.75;;;11.80;94.40;;;;;;5095092;28;20043;-50
2022/04/06 10:51:30;;;;;;;6.95;3.80;;;11.70;94.50;;;;;;5094625;28;20039;-50
2022/04/06 10:54:14;;;;;;;9.00;3.97;;;11.80;94.30;;;;;;5094529;28;20067;-53
2022/04/06 10:57:02;;;;;;;8.57;3.60;;;11.80;94.40;;;;;;5075041;28;20027;-52
2022/04/06 11:00:15;;;;;;;6.20;4.00;;;11.60;94.60;;;;;;5074688;28;20094;-51
2022/04/06 11:03:18;;;;;;;11.68;3.90;;;11.70;94.40;;;;;;5073008;28;20415;-54
2022/04/06 11:06:02;;;;;;;6.22;4.00;;;11.70;94.30;;;;;;5074446;28;20032;-53
2022/04/06 11:12:08;;;;;;;6.80;3.58;;;12.00;94.30;;;;;;5073708;28;20346;-51
2022/04/06 11:14:52;;;;;;;7.45;3.70;;;12.00;94.00;;;;;;5073872;28;20071;-55
2022/04/06 11:17:38;;;;;;;6.30;3.30;;;12.00;93.90;;;;;;5073773;28;20035;-54
2022/04/06 11:20:31;;;;;;;7.22;3.58;;;11.70;93.90;;;;;;5074020;28;20036;-52
2022/04/06 11:23:16;;;;;;;6.63;3.53;;;11.70;94.00;;;;;;5073415;28;20031;-55
2022/04/06 11:26:01;;;;;;;4.28;3.20;;;11.70;94.10;;;;;;5073725;28;20023;-53
2022/04/06 11:28:58;;;;;;;6.45;3.53;;;11.80;94.10;;;;;;5073495;28;20071;-52
2022/04/06 11:31:59;;;;;;;7.05;3.70;;;11.80;94.20;;;;;;5075090;28;20047;-52
2022/04/06 11:34:43;;;;;;;5.82;3.50;;;11.80;93.80;;;;;;5074121;28;20036;-52
2022/04/06 11:37:28;;;;;;;5.45;3.53;;;11.70;94.00;;;;;;5074625;28;20187;-55
2022/04/06 11:40:16;;;;;;;5.90;3.80;;;11.80;94.10;;;;;;5079950;28;20082;-51
2022/04/06 11:43:05;;;;;;;7.15;3.47;;;12.00;93.80;;;;;;5095288;28;20106;-54
2022/04/06 11:45:51;;;;;;;9.25;3.80;;;12.20;93.60;;;;;;5094240;28;20030;-52
2022/04/06 11:48:42;;;;;;;6.97;3.72;;;12.00;93.40;;;;;;5081320;28;20047;-50
2022/04/06 11:51:27;;;;;;;16.70;6.22;;;12.00;93.40;;;;;;5105061;28;20508;-55
2022/04/06 11:54:11;;;;;;;8.45;5.00;;;12.00;93.80;;;;;;5092938;28;20403;-53
2022/04/06 11:56:56;;;;;;;9.93;4.37;;;12.10;93.30;;;;;;5074255;28;20071;-49
2022/04/06 11:59:51;;;;;;;7.93;3.70;;;11.90;93.40;;;;;;5097904;28;20265;-55
2022/04/06 12:02:56;;;;;;;7.88;3.28;;;12.00;93.60;;;;;;5093201;28;20081;-49
2022/04/06 12:05:47;;;;;;;17.23;5.50;;;12.20;93.20;;;;;;5085137;28;20097;-52
2022/04/06 12:08:32;;;;;;;6.18;3.60;;;12.10;93.20;;;;;;5073105;28;20457;-53
2022/04/06 12:11:20;;;;;;;4.15;3.00;;;12.30;93.10;;;;;;5091919;28;20071;-49
2022/04/06 12:14:06;;;;;;;6.97;3.53;;;12.30;92.80;;;;;;5093038;28;20039;-52
2022/04/06 12:16:51;;;;;;;7.15;3.78;;;12.40;92.60;;;;;;5107998;28;20022;-54
2022/04/06 12:19:35;;;;;;;4.53;3.22;;;12.40;92.50;;;;;;5113775;28;20090;-52
2022/04/06 12:22:25;;;;;;;6.53;3.80;;;12.30;92.40;;;;;;5093010;28;20043;-53
2022/04/06 12:25:26;;;;;;;6.00;3.60;;;12.30;92.50;;;;;;5090184;28;20034;-51
2022/04/06 12:28:19;;;;;;;11.65;4.38;;;12.20;92.30;;;;;;5072046;28;20141;-51
2022/04/06 12:31:05;;;;;;;7.47;3.13;;;12.30;92.30;;;;;;5082133;28;20043;-49
2022/04/06 12:33:51;;;;;;;12.82;3.63;;;12.30;92.40;;;;;;5073299;28;20120;-51
2022/04/06 12:36:35;;;;;;;5.85;3.30;;;12.40;92.10;;;;;;5072703;28;20519;-48
2022/04/06 12:39:20;;;;;;;9.18;3.50;;;12.40;91.90;;;;;;5086956;28;20453;-48
2022/04/06 12:42:07;;;;;;;5.38;3.30;;;12.60;92.00;;;;;;5101907;28;20521;-53
2022/04/06 12:45:01;;;;;;;12.23;3.80;;;12.40;92.20;;;;;;5092514;28;20046;-54
2022/04/06 12:47:46;;;;;;;5.88;3.90;;;12.40;92.00;;;;;;5081680;28;20518;-49
2022/04/06 12:50:36;;;;;;;4.80;3.72;;;12.40;91.90;;;;;;5102946;28;20135;-49
2022/04/06 12:53:20;;;;;;;7.35;4.00;;;12.60;92.00;;;;;;5106002;28;20056;-54
2022/04/06 12:56:12;;;;;;;7.00;3.85;;;12.60;91.70;;;;;;5104337;28;20035;-51
2022/04/06 12:59:10;;;;;;;8.00;3.80;;;12.50;92.00;;;;;;5093722;28;20112;-51
2022/04/06 13:01:56;;;;;;;5.80;3.58;;;12.80;91.70;;;;;;5084688;28;20503;-54
2022/04/06 13:04:40;;;;;;;7.60;3.80;;;13.00;91.70;;;;;;5073160;28;20095;-53
2022/04/06 13:07:24;;;;;;;9.30;4.47;;;13.20;91.40;;;;;;5072807;28;20443;-51
2022/04/06 13:10:13;;;;;;;8.83;3.97;;;13.20;91.10;;;;;;5072728;28;20530;-49
2022/04/06 13:12:57;;;;;;;10.05;4.70;;;13.10;91.30;;;;;;5071993;28;20457;-51
2022/04/06 13:15:42;;;;;;;8.85;3.70;;;13.20;91.50;;;;;;5079782;28;20035;-50
2022/04/06 13:18:26;;;;;;;6.38;3.63;;;13.30;91.10;;;;;;5084318;28;20584;-51
2022/04/06 13:21:11;;;;;;;10.32;4.25;;;13.20;91.20;;;;;;5072042;28;20586;-52
2022/04/06 13:23:55;;;;;;;6.00;3.45;;;13.30;90.50;;;;;;5077045;28;20055;-57
2022/04/06 13:26:39;;;;;;;11.07;3.88;;;13.30;90.60;;;;;;5075850;28;20042;-50
2022/04/06 13:29:24;;;;;;;7.97;4.03;;;13.60;90.20;;;;;;5073654;28;20566;-53
2022/04/06 13:32:09;;;;;;;6.80;3.55;;;13.60;89.60;;;;;;5087551;28;20047;-47
2022/04/06 13:34:53;;;;;;;8.13;4.03;;;13.70;90.00;;;;;;5085990;28;20044;-48
2022/04/06 13:37:39;;;;;;;7.22;3.78;;;13.70;89.00;;;;;;5072501;28;20093;-50
2022/04/06 13:40:23;;;;;;;9.27;4.13;;;13.70;90.10;;;;;;5075851;28;20118;-53
2022/04/06 13:43:07;;;;;;;7.03;4.17;;;13.70;89.90;;;;;;5109581;28;20031;-51
2022/04/06 13:45:51;;;;;;;6.03;3.85;;;13.60;90.20;;;;;;5098680;28;20261;-49
2022/04/06 13:48:35;;;;;;;5.00;3.58;;;13.70;88.80;;;;;;5074313;28;20085;-50
2022/04/06 13:51:19;;;;;;;10.57;4.07;;;13.50;88.80;;;;;;5086994;28;20031;-51
2022/04/06 13:54:03;;;;;;;7.72;3.75;;;13.70;88.60;;;;;;5091601;28;20035;-54
2022/04/06 13:56:48;;;;;;;8.10;3.92;;;13.70;88.70;;;;;;5098310;28;20043;-50
2022/04/06 13:59:32;;;;;;;4.97;3.30;;;13.70;88.40;;;;;;5091720;28;20442;-50
2022/04/06 14:02:16;;;;;;;5.15;3.90;;;13.60;89.40;;;;;;5076880;28;20128;-54
2022/04/06 14:05:02;;;;;;;6.77;3.50;;;13.80;88.70;;;;;;5071892;28;20043;-56
2022/04/06 14:07:49;;;;;;;5.85;4.18;;;13.60;88.60;;;;;;5091493;28;20360;-53
2022/04/06 14:10:33;;;;;;;6.43;3.30;;;13.40;89.20;;;;;;5086225;28;20372;-51
2022/04/06 14:13:18;;;;;;;5.60;3.60;;;13.50;89.10;;;;;;5071484;28;20040;-56
2022/04/06 14:16:02;;;;;;;9.65;4.18;;;13.80;88.20;;;;;;5080062;28;20637;-48
2022/04/06 14:18:46;;;;;;;6.63;4.13;;;14.30;87.70;;;;;;5082871;28;20507;-48
2022/04/06 14:21:33;;;;;;;9.43;4.22;;;14.50;87.30;;;;;;5071977;28;20059;-48
2022/04/06 14:24:18;;;;;;;7.93;4.30;;;14.60;87.50;;;;;;5071502;28;20044;-49